sensor_id;sensor_type;location;lat;lon;timestamp;pressure;altitude;pressure_sealevel;temperature;humidity
16595;BME280;8410;52.532;13.336;2023-05-23T00:01:03;100711.41;;;22.49;44.10
16595;BME280;8410;52.532;13.336;2023-05-23T00:03:32;100711.16;;;22.55;44.53
16595;BME280;8410;52.532;13.336;2023-05-23T00:06:01;100709.22;;;22.37;44.57
16595;BME280;8410;52.532;13.336;2023-05-23T00:08:29;100709.66;;;22.72;44.24
16595;BME280;8410;52.532;13.336;2023-05-23T00:10:57;100714.72;;;22.06;44.80
16595;BME280;8410;52.532;13.336;2023-05-23T00:13:24;100705.34;;;22.23;44.53
16595;BME280;8410;52.532;13.336;2023-05-23T00:15:52;100704.91;;;22.59;44.09
16595;BME280;8410;52.532;13.336;2023-05-23T00:18:19;100701.19;;;22.65;44.20
16595;BME280;8410;52.532;13.336;2023-05-23T00:20:50;100714.19;;;21.71;46.06
16595;BME280;8410;52.532;13.336;2023-05-23T00:23:19;100703.78;;;22.43;44.87
16595;BME280;8410;52.532;13.336;2023-05-23T00:25:47;100701.34;;;22.13;44.99
16595;BME280;8410;52.532;13.336;2023-05-23T00:28:19;100695.50;;;22.30;45.10
16595;BME280;8410;52.532;13.336;2023-05-23T00:30:46;100690.97;;;22.34;44.93
16595;BME280;8410;52.532;13.336;2023-05-23T00:33:15;100689.84;;;22.41;44.53
16595;BME280;8410;52.532;13.336;2023-05-23T00:35:43;100691.69;;;22.14;45.32
16595;BME280;8410;52.532;13.336;2023-05-23T00:38:10;100692.97;;;22.02;46.01
16595;BME280;8410;52.532;13.336;2023-05-23T00:40:39;100688.03;;;22.43;44.80
16595;BME280;8410;52.532;13.336;2023-05-23T00:43:07;100680.56;;;22.32;44.69
16595;BME280;8410;52.532;13.336;2023-05-23T00:45:34;100689.13;;;22.12;45.53
16595;BME280;8410;52.532;13.336;2023-05-23T00:48:04;100679.94;;;22.26;44.98
16595;BME280;8410;52.532;13.336;2023-05-23T00:50:32;100680.38;;;22.13;45.48
16595;BME280;8410;52.532;13.336;2023-05-23T00:53:01;100676.41;;;22.27;45.55
16595;BME280;8410;52.532;13.336;2023-05-23T00:55:30;100669.75;;;22.16;45.54
16595;BME280;8410;52.532;13.336;2023-05-23T00:57:59;100675.78;;;21.95;45.85
16595;BME280;8410;52.532;13.336;2023-05-23T01:00:26;100670.00;;;21.85;46.31
16595;BME280;8410;52.532;13.336;2023-05-23T01:02:55;100667.75;;;21.74;46.66
16595;BME280;8410;52.532;13.336;2023-05-23T01:05:23;100676.34;;;21.26;47.33
16595;BME280;8410;52.532;13.336;2023-05-23T01:07:51;100659.72;;;22.04;45.86
16595;BME280;8410;52.532;13.336;2023-05-23T01:10:21;100662.56;;;21.98;46.21
16595;BME280;8410;52.532;13.336;2023-05-23T01:12:57;100656.75;;;22.13;45.77
16595;BME280;8410;52.532;13.336;2023-05-23T01:15:32;100656.25;;;22.03;46.25
16595;BME280;8410;52.532;13.336;2023-05-23T01:18:06;100655.34;;;21.79;46.18
16595;BME280;8410;52.532;13.336;2023-05-23T01:20:38;100655.81;;;21.91;46.16
16595;BME280;8410;52.532;13.336;2023-05-23T01:23:37;100645.91;;;21.99;46.13
16595;BME280;8410;52.532;13.336;2023-05-23T01:26:17;100653.09;;;22.17;45.78
16595;BME280;8410;52.532;13.336;2023-05-23T01:28:54;100648.91;;;22.13;45.54
16595;BME280;8410;52.532;13.336;2023-05-23T01:31:26;100657.06;;;21.80;46.49
16595;BME280;8410;52.532;13.336;2023-05-23T01:33:56;100648.78;;;22.16;46.12
16595;BME280;8410;52.532;13.336;2023-05-23T01:36:24;100652.13;;;22.21;45.76
16595;BME280;8410;52.532;13.336;2023-05-23T01:38:52;100652.94;;;21.98;46.62
16595;BME280;8410;52.532;13.336;2023-05-23T01:41:19;100643.66;;;22.13;45.97
16595;BME280;8410;52.532;13.336;2023-05-23T01:43:47;100643.84;;;22.07;45.93
16595;BME280;8410;52.532;13.336;2023-05-23T01:46:16;100652.16;;;21.71;46.77
16595;BME280;8410;52.532;13.336;2023-05-23T01:48:44;100652.75;;;21.54;46.77
16595;BME280;8410;52.532;13.336;2023-05-23T01:51:13;100655.59;;;21.73;46.47
16595;BME280;8410;52.532;13.336;2023-05-23T01:53:49;100643.19;;;21.78;46.30
16595;BME280;8410;52.532;13.336;2023-05-23T01:56:18;100650.66;;;21.64;46.56
16595;BME280;8410;52.532;13.336;2023-05-23T01:58:47;100637.84;;;21.80;46.33
16595;BME280;8410;52.532;13.336;2023-05-23T02:01:14;100645.19;;;21.45;46.79
16595;BME280;8410;52.532;13.336;2023-05-23T02:03:42;100640.88;;;21.69;47.00
16595;BME280;8410;52.532;13.336;2023-05-23T02:06:09;100640.06;;;21.92;46.66
16595;BME280;8410;52.532;13.336;2023-05-23T02:08:37;100647.44;;;21.56;47.17
16595;BME280;8410;52.532;13.336;2023-05-23T02:11:06;100643.84;;;21.84;46.78
16595;BME280;8410;52.532;13.336;2023-05-23T02:13:34;100648.28;;;21.56;47.63
16595;BME280;8410;52.532;13.336;2023-05-23T02:16:01;100654.28;;;21.60;47.31
16595;BME280;8410;52.532;13.336;2023-05-23T02:18:29;100662.56;;;21.48;47.84
16595;BME280;8410;52.532;13.336;2023-05-23T02:20:56;100650.31;;;21.48;47.68
16595;BME280;8410;52.532;13.336;2023-05-23T02:23:24;100651.38;;;21.68;47.15
16595;BME280;8410;52.532;13.336;2023-05-23T02:25:51;100652.84;;;21.76;47.21
16595;BME280;8410;52.532;13.336;2023-05-23T02:28:20;100645.59;;;21.83;46.81
16595;BME280;8410;52.532;13.336;2023-05-23T02:30:48;100651.81;;;21.80;47.40
16595;BME280;8410;52.532;13.336;2023-05-23T02:33:15;100649.00;;;21.87;47.09
16595;BME280;8410;52.532;13.336;2023-05-23T02:35:43;100643.75;;;21.87;46.98
16595;BME280;8410;52.532;13.336;2023-05-23T02:38:10;100638.00;;;21.75;47.00
16595;BME280;8410;52.532;13.336;2023-05-23T02:40:38;100643.59;;;21.66;47.49
16595;BME280;8410;52.532;13.336;2023-05-23T02:43:05;100642.41;;;21.50;47.65
16595;BME280;8410;52.532;13.336;2023-05-23T02:45:34;100637.63;;;21.63;47.58
16595;BME280;8410;52.532;13.336;2023-05-23T02:48:02;100646.03;;;21.19;48.42
16595;BME280;8410;52.532;13.336;2023-05-23T02:50:29;100640.38;;;21.58;47.85
16595;BME280;8410;52.532;13.336;2023-05-23T02:52:57;100644.22;;;21.73;47.48
16595;BME280;8410;52.532;13.336;2023-05-23T02:55:24;100637.69;;;21.59;47.33
16595;BME280;8410;52.532;13.336;2023-05-23T02:57:52;100640.63;;;20.97;48.73
16595;BME280;8410;52.532;13.336;2023-05-23T03:00:19;100637.38;;;21.44;47.55
16595;BME280;8410;52.532;13.336;2023-05-23T03:02:48;100644.13;;;21.51;47.52
16595;BME280;8410;52.532;13.336;2023-05-23T03:05:16;100650.06;;;21.29;48.14
16595;BME280;8410;52.532;13.336;2023-05-23T03:07:43;100642.69;;;21.14;48.66
16595;BME280;8410;52.532;13.336;2023-05-23T03:10:11;100639.66;;;20.73;49.15
16595;BME280;8410;52.532;13.336;2023-05-23T03:12:38;100642.81;;;20.25;50.81
16595;BME280;8410;52.532;13.336;2023-05-23T03:15:07;100637.25;;;20.37;50.85
16595;BME280;8410;52.532;13.336;2023-05-23T03:17:34;100630.72;;;20.80;50.43
16595;BME280;8410;52.532;13.336;2023-05-23T03:20:04;100626.38;;;20.79;49.84
16595;BME280;8410;52.532;13.336;2023-05-23T03:22:35;100627.13;;;21.38;48.92
16595;BME280;8410;52.532;13.336;2023-05-23T03:25:03;100630.31;;;21.46;48.48
16595;BME280;8410;52.532;13.336;2023-05-23T03:27:31;100625.63;;;21.29;48.94
16595;BME280;8410;52.532;13.336;2023-05-23T03:29:58;100629.59;;;21.14;49.37
16595;BME280;8410;52.532;13.336;2023-05-23T03:32:26;100617.53;;;21.10;49.21
16595;BME280;8410;52.532;13.336;2023-05-23T03:34:53;100628.06;;;20.24;50.57
16595;BME280;8410;52.532;13.336;2023-05-23T03:37:22;100627.69;;;20.92;49.87
16595;BME280;8410;52.532;13.336;2023-05-23T03:39:50;100630.31;;;21.46;48.64
16595;BME280;8410;52.532;13.336;2023-05-23T03:42:18;100629.69;;;21.64;48.75
16595;BME280;8410;52.532;13.336;2023-05-23T03:44:45;100625.97;;;20.93;50.25
16595;BME280;8410;52.532;13.336;2023-05-23T03:47:13;100625.34;;;21.11;49.73
16595;BME280;8410;52.532;13.336;2023-05-23T03:49:40;100624.59;;;20.52;50.82
16595;BME280;8410;52.532;13.336;2023-05-23T03:52:08;100628.00;;;20.83;49.99
16595;BME280;8410;52.532;13.336;2023-05-23T03:54:37;100621.91;;;20.25;51.66
16595;BME280;8410;52.532;13.336;2023-05-23T03:57:04;100619.94;;;20.02;51.73
16595;BME280;8410;52.532;13.336;2023-05-23T03:59:32;100617.03;;;20.42;50.69
16595;BME280;8410;52.532;13.336;2023-05-23T04:02:00;100628.53;;;19.76;52.61
16595;BME280;8410;52.532;13.336;2023-05-23T04:04:28;100626.69;;;20.40;51.05
16595;BME280;8410;52.532;13.336;2023-05-23T04:06:56;100618.31;;;20.29;51.63
16595;BME280;8410;52.532;13.336;2023-05-23T04:09:24;100613.69;;;20.67;50.97
16595;BME280;8410;52.532;13.336;2023-05-23T04:11:53;100618.66;;;19.86;51.92
16595;BME280;8410;52.532;13.336;2023-05-23T04:14:21;100613.34;;;20.20;52.02
16595;BME280;8410;52.532;13.336;2023-05-23T04:16:50;100616.31;;;20.37;51.91
16595;BME280;8410;52.532;13.336;2023-05-23T04:19:18;100623.31;;;20.66;51.58
16595;BME280;8410;52.532;13.336;2023-05-23T04:21:46;100630.19;;;20.39;51.78
16595;BME280;8410;52.532;13.336;2023-05-23T04:24:13;100630.34;;;20.05;52.39
16595;BME280;8410;52.532;13.336;2023-05-23T04:26:41;100629.56;;;20.61;51.71
16595;BME280;8410;52.532;13.336;2023-05-23T04:29:09;100622.38;;;20.69;50.85
16595;BME280;8410;52.532;13.336;2023-05-23T04:31:37;100624.38;;;20.87;51.22
16595;BME280;8410;52.532;13.336;2023-05-23T04:34:05;100619.06;;;21.17;50.54
16595;BME280;8410;52.532;13.336;2023-05-23T04:36:33;100620.75;;;21.18;50.91
16595;BME280;8410;52.532;13.336;2023-05-23T04:39:03;100622.94;;;20.19;52.47
16595;BME280;8410;52.532;13.336;2023-05-23T04:41:31;100616.50;;;20.31;52.57
16595;BME280;8410;52.532;13.336;2023-05-23T04:43:58;100619.09;;;20.31;51.58
16595;BME280;8410;52.532;13.336;2023-05-23T04:46:27;100613.72;;;20.93;51.00
16595;BME280;8410;52.532;13.336;2023-05-23T04:48:54;100625.19;;;20.89;51.59
16595;BME280;8410;52.532;13.336;2023-05-23T04:51:23;100613.91;;;20.87;50.93
16595;BME280;8410;52.532;13.336;2023-05-23T04:53:51;100613.66;;;20.95;51.52
16595;BME280;8410;52.532;13.336;2023-05-23T04:56:19;100617.41;;;20.60;51.97
16595;BME280;8410;52.532;13.336;2023-05-23T04:58:47;100609.09;;;20.75;51.86
16595;BME280;8410;52.532;13.336;2023-05-23T05:01:15;100610.03;;;20.99;51.60
16595;BME280;8410;52.532;13.336;2023-05-23T05:03:44;100606.88;;;21.16;52.16
16595;BME280;8410;52.532;13.336;2023-05-23T05:06:12;100605.88;;;20.93;52.29
16595;BME280;8410;52.532;13.336;2023-05-23T05:08:39;100612.34;;;20.82;52.23
16595;BME280;8410;52.532;13.336;2023-05-23T05:11:07;100621.56;;;20.93;51.85
16595;BME280;8410;52.532;13.336;2023-05-23T05:13:35;100626.22;;;21.12;51.83
16595;BME280;8410;52.532;13.336;2023-05-23T05:16:03;100625.84;;;21.23;51.89
16595;BME280;8410;52.532;13.336;2023-05-23T05:18:30;100627.69;;;21.19;51.20
16595;BME280;8410;52.532;13.336;2023-05-23T05:20:59;100626.75;;;21.22;51.75
16595;BME280;8410;52.532;13.336;2023-05-23T05:23:27;100622.28;;;21.25;51.96
16595;BME280;8410;52.532;13.336;2023-05-23T05:25:55;100627.91;;;21.13;52.41
16595;BME280;8410;52.532;13.336;2023-05-23T05:28:23;100627.69;;;21.19;52.31
16595;BME280;8410;52.532;13.336;2023-05-23T05:30:50;100627.41;;;21.28;52.16
16595;BME280;8410;52.532;13.336;2023-05-23T05:33:19;100636.94;;;20.76;52.53
16595;BME280;8410;52.532;13.336;2023-05-23T05:35:49;100637.97;;;20.42;55.52
16595;BME280;8410;52.532;13.336;2023-05-23T05:38:18;100636.28;;;20.10;56.28
16595;BME280;8410;52.532;13.336;2023-05-23T05:40:46;100636.66;;;20.85;54.97
16595;BME280;8410;52.532;13.336;2023-05-23T05:43:13;100643.47;;;20.63;55.16
16595;BME280;8410;52.532;13.336;2023-05-23T05:45:41;100641.56;;;20.38;55.44
16595;BME280;8410;52.532;13.336;2023-05-23T05:48:08;100643.25;;;20.39;55.40
16595;BME280;8410;52.532;13.336;2023-05-23T05:50:37;100630.78;;;20.49;55.45
16595;BME280;8410;52.532;13.336;2023-05-23T05:53:05;100631.81;;;20.43;55.74
16595;BME280;8410;52.532;13.336;2023-05-23T05:55:34;100634.44;;;20.14;56.03
16595;BME280;8410;52.532;13.336;2023-05-23T05:58:02;100626.09;;;20.31;56.08
16595;BME280;8410;52.532;13.336;2023-05-23T06:00:29;100624.06;;;20.70;55.04
16595;BME280;8410;52.532;13.336;2023-05-23T06:02:57;100629.81;;;20.23;55.64
16595;BME280;8410;52.532;13.336;2023-05-23T06:05:25;100627.97;;;20.57;55.37
16595;BME280;8410;52.532;13.336;2023-05-23T06:07:52;100624.50;;;20.56;55.41
16595;BME280;8410;52.532;13.336;2023-05-23T06:10:20;100618.16;;;20.63;55.00
16595;BME280;8410;52.532;13.336;2023-05-23T06:12:49;100608.47;;;20.37;55.39
16595;BME280;8410;52.532;13.336;2023-05-23T06:15:16;100607.97;;;20.56;54.64
16595;BME280;8410;52.532;13.336;2023-05-23T06:17:44;100613.50;;;20.73;54.38
16595;BME280;8410;52.532;13.336;2023-05-23T06:20:11;100613.38;;;21.04;53.56
16595;BME280;8410;52.532;13.336;2023-05-23T06:22:39;100610.16;;;20.68;54.23
16595;BME280;8410;52.532;13.336;2023-05-23T06:25:07;100617.81;;;20.74;54.26
16595;BME280;8410;52.532;13.336;2023-05-23T06:27:35;100617.41;;;20.88;53.47
16595;BME280;8410;52.532;13.336;2023-05-23T06:30:05;100616.13;;;21.00;54.04
16595;BME280;8410;52.532;13.336;2023-05-23T06:32:33;100614.13;;;21.33;52.69
16595;BME280;8410;52.532;13.336;2023-05-23T06:35:00;100616.44;;;21.17;53.31
16595;BME280;8410;52.532;13.336;2023-05-23T06:37:28;100611.41;;;21.38;53.08
16595;BME280;8410;52.532;13.336;2023-05-23T06:39:56;100614.47;;;21.24;53.66
16595;BME280;8410;52.532;13.336;2023-05-23T06:42:23;100614.56;;;21.21;53.46
16595;BME280;8410;52.532;13.336;2023-05-23T06:44:51;100616.72;;;21.08;54.20
16595;BME280;8410;52.532;13.336;2023-05-23T06:47:19;100626.81;;;20.93;55.23
16595;BME280;8410;52.532;13.336;2023-05-23T06:49:48;100623.38;;;20.91;55.86
16595;BME280;8410;52.532;13.336;2023-05-23T06:52:16;100628.38;;;20.71;60.52
16595;BME280;8410;52.532;13.336;2023-05-23T06:54:43;100629.50;;;20.64;63.52
16595;BME280;8410;52.532;13.336;2023-05-23T06:57:10;100627.75;;;21.69;64.36
16595;BME280;8410;52.532;13.336;2023-05-23T06:59:38;100616.06;;;22.03;61.87
16595;BME280;8410;52.532;13.336;2023-05-23T07:02:05;100615.59;;;22.15;61.83
16595;BME280;8410;52.532;13.336;2023-05-23T07:04:34;100613.69;;;22.20;60.35
16595;BME280;8410;52.532;13.336;2023-05-23T07:07:02;100617.09;;;22.46;60.74
16595;BME280;8410;52.532;13.336;2023-05-23T07:09:29;100619.72;;;22.46;59.36
16595;BME280;8410;52.532;13.336;2023-05-23T07:11:57;100613.34;;;22.30;58.18
16595;BME280;8410;52.532;13.336;2023-05-23T07:14:24;100621.53;;;22.44;57.75
16595;BME280;8410;52.532;13.336;2023-05-23T07:16:51;100623.03;;;22.28;58.68
16595;BME280;8410;52.532;13.336;2023-05-23T07:19:19;100625.78;;;22.24;58.29
16595;BME280;8410;52.532;13.336;2023-05-23T07:21:48;100624.06;;;22.23;56.35
16595;BME280;8410;52.532;13.336;2023-05-23T07:24:15;100619.47;;;22.52;54.69
16595;BME280;8410;52.532;13.336;2023-05-23T07:26:43;100621.28;;;22.50;53.42
16595;BME280;8410;52.532;13.336;2023-05-23T07:29:10;100630.38;;;21.69;54.85
16595;BME280;8410;52.532;13.336;2023-05-23T07:31:38;100619.47;;;22.05;53.81
16595;BME280;8410;52.532;13.336;2023-05-23T07:34:06;100611.16;;;22.41;53.04
16595;BME280;8410;52.532;13.336;2023-05-23T07:36:33;100609.16;;;22.70;52.21
16595;BME280;8410;52.532;13.336;2023-05-23T07:39:04;100612.19;;;22.13;52.63
16595;BME280;8410;52.532;13.336;2023-05-23T07:41:32;100619.84;;;21.46;54.64
16595;BME280;8410;52.532;13.336;2023-05-23T07:43:59;100629.00;;;21.32;55.15
16595;BME280;8410;52.532;13.336;2023-05-23T07:46:27;100628.13;;;21.07;55.68
16595;BME280;8410;52.532;13.336;2023-05-23T07:48:54;100620.88;;;21.42;54.69
16595;BME280;8410;52.532;13.336;2023-05-23T07:51:22;100620.53;;;21.24;55.88
16595;BME280;8410;52.532;13.336;2023-05-23T07:53:50;100635.13;;;20.78;57.39
16595;BME280;8410;52.532;13.336;2023-05-23T07:56:19;100634.66;;;21.20;56.03
16595;BME280;8410;52.532;13.336;2023-05-23T07:58:46;100631.34;;;21.15;56.84
16595;BME280;8410;52.532;13.336;2023-05-23T08:01:14;100635.72;;;21.14;57.05
16595;BME280;8410;52.532;13.336;2023-05-23T08:03:41;100640.41;;;21.05;57.33
16595;BME280;8410;52.532;13.336;2023-05-23T08:06:08;100622.41;;;21.72;56.02
16595;BME280;8410;52.532;13.336;2023-05-23T08:08:36;100641.44;;;20.99;57.28
16595;BME280;8410;52.532;13.336;2023-05-23T08:11:04;100638.16;;;21.19;57.47
16595;BME280;8410;52.532;13.336;2023-05-23T08:13:33;100640.69;;;20.69;58.18
16595;BME280;8410;52.532;13.336;2023-05-23T08:16:00;100646.03;;;20.64;58.28
16595;BME280;8410;52.532;13.336;2023-05-23T08:18:28;100642.31;;;20.42;59.75
16595;BME280;8410;52.532;13.336;2023-05-23T08:20:56;100640.78;;;21.19;57.91
16595;BME280;8410;52.532;13.336;2023-05-23T08:23:23;100640.72;;;20.96;58.17
16595;BME280;8410;52.532;13.336;2023-05-23T08:25:51;100644.34;;;20.90;58.16
16595;BME280;8410;52.532;13.336;2023-05-23T08:28:19;100649.75;;;20.85;59.11
16595;BME280;8410;52.532;13.336;2023-05-23T08:30:48;100649.91;;;20.79;58.66
16595;BME280;8410;52.532;13.336;2023-05-23T08:33:15;100655.59;;;20.65;60.11
16595;BME280;8410;52.532;13.336;2023-05-23T08:35:42;100651.25;;;20.92;59.47
16595;BME280;8410;52.532;13.336;2023-05-23T08:38:10;100639.56;;;21.81;57.37
16595;BME280;8410;52.532;13.336;2023-05-23T08:40:38;100654.69;;;21.73;58.07
16595;BME280;8410;52.532;13.336;2023-05-23T08:43:08;100646.75;;;22.24;57.33
16595;BME280;8410;52.532;13.336;2023-05-23T08:45:37;100654.63;;;22.48;56.39
16595;BME280;8410;52.532;13.336;2023-05-23T08:48:08;100656.28;;;22.02;57.78
16595;BME280;8410;52.532;13.336;2023-05-23T08:50:38;100660.00;;;21.71;59.33
16595;BME280;8410;52.532;13.336;2023-05-23T08:53:08;100658.00;;;22.03;58.96
16595;BME280;8410;52.532;13.336;2023-05-23T08:55:36;100649.69;;;23.06;56.32
16595;BME280;8410;52.532;13.336;2023-05-23T08:58:04;100652.25;;;23.50;55.13
16595;BME280;8410;52.532;13.336;2023-05-23T09:00:32;100652.97;;;23.54;55.16
16595;BME280;8410;52.532;13.336;2023-05-23T09:03:00;100663.38;;;22.47;59.12
16595;BME280;8410;52.532;13.336;2023-05-23T09:05:30;100666.56;;;22.32;59.88
16595;BME280;8410;52.532;13.336;2023-05-23T09:07:57;100664.16;;;22.27;60.68
16595;BME280;8410;52.532;13.336;2023-05-23T09:10:25;100665.31;;;22.42;60.92
16595;BME280;8410;52.532;13.336;2023-05-23T09:12:55;100667.06;;;22.87;60.08
16595;BME280;8410;52.532;13.336;2023-05-23T09:15:23;100668.06;;;23.28;59.85
16595;BME280;8410;52.532;13.336;2023-05-23T09:17:52;100665.44;;;23.69;58.58
16595;BME280;8410;52.532;13.336;2023-05-23T09:20:20;100672.50;;;22.37;62.37
16595;BME280;8410;52.532;13.336;2023-05-23T09:22:49;100672.72;;;22.78;62.11
16595;BME280;8410;52.532;13.336;2023-05-23T09:25:17;100660.75;;;23.77;59.40
16595;BME280;8410;52.532;13.336;2023-05-23T09:27:44;100663.66;;;24.30;58.44
16595;BME280;8410;52.532;13.336;2023-05-23T09:30:16;100674.53;;;23.42;59.81
16595;BME280;8410;52.532;13.336;2023-05-23T09:32:56;100669.56;;;23.54;60.06
16595;BME280;8410;52.532;13.336;2023-05-23T09:35:27;100668.56;;;23.79;59.58
16595;BME280;8410;52.532;13.336;2023-05-23T09:37:57;100668.47;;;22.97;60.92
16595;BME280;8410;52.532;13.336;2023-05-23T09:40:28;100675.88;;;22.86;62.36
16595;BME280;8410;52.532;13.336;2023-05-23T09:43:01;100684.75;;;22.60;62.60
16595;BME280;8410;52.532;13.336;2023-05-23T09:45:29;100676.69;;;22.17;64.24
16595;BME280;8410;52.532;13.336;2023-05-23T09:47:57;100679.94;;;22.26;63.76
16595;BME280;8410;52.532;13.336;2023-05-23T09:50:30;100680.59;;;23.00;62.47
16595;BME280;8410;52.532;13.336;2023-05-23T09:53:00;100675.97;;;22.61;63.16
16595;BME280;8410;52.532;13.336;2023-05-23T09:55:27;100667.69;;;22.72;63.11
16595;BME280;8410;52.532;13.336;2023-05-23T09:57:57;100674.00;;;22.44;64.08
16595;BME280;8410;52.532;13.336;2023-05-23T10:00:25;100674.31;;;22.11;63.88
16595;BME280;8410;52.532;13.336;2023-05-23T10:02:57;100685.91;;;22.04;64.56
16595;BME280;8410;52.532;13.336;2023-05-23T10:05:30;100688.13;;;22.40;63.80
16595;BME280;8410;52.532;13.336;2023-05-23T10:08:02;100694.41;;;21.87;65.73
16595;BME280;8410;52.532;13.336;2023-05-23T10:10:32;100690.75;;;21.66;65.61
16595;BME280;8410;52.532;13.336;2023-05-23T10:13:02;100687.13;;;23.11;61.91
16595;BME280;8410;52.532;13.336;2023-05-23T10:15:36;100685.06;;;22.29;64.61
16595;BME280;8410;52.532;13.336;2023-05-23T10:18:09;100685.28;;;22.46;64.58
16595;BME280;8410;52.532;13.336;2023-05-23T10:20:42;100684.56;;;22.19;65.88
16595;BME280;8410;52.532;13.336;2023-05-23T10:23:14;100686.25;;;22.89;64.73
16595;BME280;8410;52.532;13.336;2023-05-23T10:25:43;100678.78;;;23.65;62.49
16595;BME280;8410;52.532;13.336;2023-05-23T10:28:11;100681.13;;;23.71;62.63
16595;BME280;8410;52.532;13.336;2023-05-23T10:30:39;100680.66;;;23.20;63.90
16595;BME280;8410;52.532;13.336;2023-05-23T10:33:08;100684.44;;;22.91;65.18
16595;BME280;8410;52.532;13.336;2023-05-23T10:35:46;100686.00;;;22.73;65.30
16595;BME280;8410;52.532;13.336;2023-05-23T10:38:27;100687.72;;;22.02;69.45
16595;BME280;8410;52.532;13.336;2023-05-23T10:41:01;100697.75;;;21.91;71.87
16595;BME280;8410;52.532;13.336;2023-05-23T10:43:39;100697.78;;;22.14;71.64
16595;BME280;8410;52.532;13.336;2023-05-23T10:46:07;100695.09;;;22.86;69.30
16595;BME280;8410;52.532;13.336;2023-05-23T10:48:40;100697.09;;;23.46;68.26
16595;BME280;8410;52.532;13.336;2023-05-23T10:51:08;100695.41;;;23.45;67.54
16595;BME280;8410;52.532;13.336;2023-05-23T10:53:39;100699.00;;;23.63;67.27
16595;BME280;8410;52.532;13.336;2023-05-23T10:56:08;100701.63;;;22.53;70.45
16595;BME280;8410;52.532;13.336;2023-05-23T10:58:38;100699.22;;;23.16;69.29
16595;BME280;8410;52.532;13.336;2023-05-23T11:01:07;100696.59;;;23.58;67.86
16595;BME280;8410;52.532;13.336;2023-05-23T11:03:36;100704.59;;;23.13;68.24
16595;BME280;8410;52.532;13.336;2023-05-23T11:06:05;100707.97;;;21.73;74.19
16595;BME280;8410;52.532;13.336;2023-05-23T11:08:37;100713.56;;;21.89;73.70
16595;BME280;8410;52.532;13.336;2023-05-23T11:11:13;100714.28;;;21.93;73.22
16595;BME280;8410;52.532;13.336;2023-05-23T11:13:55;100713.53;;;22.14;72.71
16595;BME280;8410;52.532;13.336;2023-05-23T11:16:26;100707.00;;;22.50;70.80
16595;BME280;8410;52.532;13.336;2023-05-23T11:19:23;100717.69;;;22.21;71.95
16595;BME280;8410;52.532;13.336;2023-05-23T11:21:56;100722.13;;;22.19;72.47
16595;BME280;8410;52.532;13.336;2023-05-23T11:24:47;100720.41;;;21.92;73.10
16595;BME280;8410;52.532;13.336;2023-05-23T11:27:17;100730.97;;;21.65;74.39
16595;BME280;8410;52.532;13.336;2023-05-23T11:29:59;100731.25;;;21.83;72.76
16595;BME280;8410;52.532;13.336;2023-05-23T11:32:28;100736.41;;;21.59;73.99
16595;BME280;8410;52.532;13.336;2023-05-23T11:35:00;100729.53;;;21.82;72.87
16595;BME280;8410;52.532;13.336;2023-05-23T11:37:29;100733.22;;;22.01;71.75
16595;BME280;8410;52.532;13.336;2023-05-23T11:39:58;100726.75;;;22.11;72.19
16595;BME280;8410;52.532;13.336;2023-05-23T11:42:27;100721.72;;;22.30;72.36
16595;BME280;8410;52.532;13.336;2023-05-23T11:44:54;100722.75;;;22.50;70.80
16595;BME280;8410;52.532;13.336;2023-05-23T11:47:23;100741.34;;;21.68;73.14
16595;BME280;8410;52.532;13.336;2023-05-23T11:49:50;100732.97;;;22.57;70.67
16595;BME280;8410;52.532;13.336;2023-05-23T11:52:18;100722.81;;;22.48;71.15
16595;BME280;8410;52.532;13.336;2023-05-23T11:54:46;100736.97;;;21.94;72.45
16595;BME280;8410;52.532;13.336;2023-05-23T11:57:15;100741.78;;;22.06;72.34
16595;BME280;8410;52.532;13.336;2023-05-23T11:59:43;100730.56;;;22.28;71.07
16595;BME280;8410;52.532;13.336;2023-05-23T12:02:10;100740.16;;;21.52;73.17
16595;BME280;8410;52.532;13.336;2023-05-23T12:04:38;100749.19;;;21.42;73.82
16595;BME280;8410;52.532;13.336;2023-05-23T12:07:06;100742.88;;;21.19;74.77
16595;BME280;8410;52.532;13.336;2023-05-23T12:09:41;100736.31;;;22.12;71.39
16595;BME280;8410;52.532;13.336;2023-05-23T12:12:09;100738.63;;;20.88;75.77
16595;BME280;8410;52.532;13.336;2023-05-23T12:14:38;100752.22;;;20.39;77.69
16595;BME280;8410;52.532;13.336;2023-05-23T12:17:10;100758.38;;;20.69;77.15
16595;BME280;8410;52.532;13.336;2023-05-23T12:19:39;100750.91;;;20.85;77.00
16595;BME280;8410;52.532;13.336;2023-05-23T12:22:11;100755.44;;;21.09;75.43
16595;BME280;8410;52.532;13.336;2023-05-23T12:24:44;100759.69;;;20.53;77.16
16595;BME280;8410;52.532;13.336;2023-05-23T12:27:11;100762.47;;;20.46;78.01
16595;BME280;8410;52.532;13.336;2023-05-23T12:29:40;100755.91;;;20.64;77.66
16595;BME280;8410;52.532;13.336;2023-05-23T12:32:08;100761.97;;;20.65;78.75
16595;BME280;8410;52.532;13.336;2023-05-23T12:34:40;100763.97;;;20.57;76.77
16595;BME280;8410;52.532;13.336;2023-05-23T12:37:07;100771.56;;;20.33;78.27
16595;BME280;8410;52.532;13.336;2023-05-23T12:39:45;100759.22;;;20.38;77.64
16595;BME280;8410;52.532;13.336;2023-05-23T12:42:13;100771.19;;;19.81;80.47
16595;BME280;8410;52.532;13.336;2023-05-23T12:44:42;100769.50;;;20.44;78.64
16595;BME280;8410;52.532;13.336;2023-05-23T12:47:11;100774.88;;;20.07;78.95
16595;BME280;8410;52.532;13.336;2023-05-23T12:49:38;100774.72;;;19.79;79.44
16595;BME280;8410;52.532;13.336;2023-05-23T12:52:06;100773.25;;;19.69;80.59
16595;BME280;8410;52.532;13.336;2023-05-23T12:54:33;100773.44;;;19.59;81.48
16595;BME280;8410;52.532;13.336;2023-05-23T12:57:01;100779.41;;;20.00;80.57
16595;BME280;8410;52.532;13.336;2023-05-23T12:59:29;100770.28;;;20.79;76.62